createdAt,value
2018-11-21T00:02:19.280Z,104.12
2018-11-21T00:04:48.068Z,107.83
2018-11-21T00:07:16.925Z,119.00
2018-11-21T00:09:45.612Z,100.22
2018-11-21T00:12:17.024Z,98.10
2018-11-21T00:14:45.815Z,117.57
2018-11-21T00:17:14.521Z,108.03
2018-11-21T00:19:43.618Z,95.07
2018-11-21T00:22:15.229Z,94.07
2018-11-21T00:24:57.142Z,90.65
2018-11-21T00:27:15.673Z,98.10
2018-11-21T00:29:44.429Z,101.05
2018-11-21T00:32:23.587Z,93.80
2018-11-21T00:34:54.834Z,97.20
2018-11-21T00:37:30.872Z,97.92
2018-11-21T00:39:58.148Z,106.20
2018-11-21T00:42:31.090Z,107.03
2018-11-21T00:44:55.768Z,103.05
2018-11-21T00:47:32.312Z,100.05
2018-11-21T00:49:59.259Z,92.30
2018-11-21T00:52:30.810Z,98.30
2018-11-21T00:54:59.582Z,100.60
2018-11-21T00:57:28.342Z,94.95
2018-11-21T00:59:57.070Z,99.67
2018-11-21T01:02:25.892Z,86.75
2018-11-21T01:04:55.620Z,82.42
2018-11-21T01:07:24.352Z,87.72
2018-11-21T01:09:55.914Z,97.08
2018-11-21T01:12:27.513Z,101.45
2018-11-21T01:14:57.503Z,88.07
2018-11-21T01:17:29.026Z,92.70
2018-11-21T01:19:57.412Z,89.67
2018-11-21T01:22:26.086Z,89.42
2018-11-21T01:24:54.867Z,88.90
2018-11-21T01:27:27.328Z,87.40
2018-11-21T01:29:55.681Z,86.65
2018-11-21T01:32:30.738Z,97.05
2018-11-21T01:34:59.484Z,97.02
2018-11-21T01:37:31.145Z,91.67
2018-11-21T01:39:59.894Z,97.65
2018-11-21T01:42:28.614Z,87.85
2018-11-21T01:45:00.459Z,94.95
2018-11-21T01:47:32.436Z,91.87
2018-11-21T01:50:01.196Z,86.30
2018-11-21T01:52:29.970Z,83.20
2018-11-21T01:54:58.804Z,89.97
2018-11-21T01:57:30.668Z,88.62
2018-11-21T01:59:59.434Z,90.32
2018-11-21T02:02:28.257Z,95.25
2018-11-21T02:04:57.079Z,90.87
2018-11-21T02:07:25.837Z,91.65
2018-11-21T02:09:54.621Z,84.05
2018-11-21T02:12:23.423Z,83.80
2018-11-21T02:14:52.240Z,84.20
2018-11-21T02:17:23.375Z,79.27
2018-11-21T02:19:52.174Z,79.00
2018-11-21T02:22:20.902Z,87.95
2018-11-21T02:24:54.842Z,87.85
2018-11-21T02:27:23.759Z,91.78
2018-11-21T02:29:52.510Z,83.97
2018-11-21T02:32:24.316Z,92.60
2018-11-21T02:34:53.558Z,87.47
2018-11-21T02:37:22.358Z,106.45
2018-11-21T02:39:52.222Z,118.77
2018-11-21T02:42:21.072Z,105.78
2018-11-21T02:44:50.154Z,99.70
2018-11-21T02:47:17.587Z,95.00
2018-11-21T02:49:52.622Z,94.65
2018-11-21T02:52:21.837Z,105.47
2018-11-21T02:54:51.047Z,117.80
2018-11-21T02:57:27.403Z,115.50
2018-11-21T02:59:58.368Z,117.10
2018-11-21T03:02:27.277Z,116.73
2018-11-21T03:04:56.019Z,110.50
2018-11-21T03:07:25.016Z,110.25
2018-11-21T03:09:54.216Z,104.38
2018-11-21T03:12:23.130Z,107.22
2018-11-21T03:14:53.086Z,129.45
2018-11-21T03:17:25.060Z,116.37
2018-11-21T03:19:52.652Z,112.72
2018-11-21T03:22:21.399Z,103.35
2018-11-21T03:24:50.100Z,102.15
2018-11-21T03:27:18.870Z,103.65
2018-11-21T03:29:47.702Z,105.63
2018-11-21T03:32:16.370Z,94.25
2018-11-21T03:34:45.257Z,103.30
2018-11-21T03:37:21.468Z,105.20
2018-11-21T03:39:48.835Z,107.55
2018-11-21T03:42:17.636Z,110.15
2018-11-21T03:44:49.175Z,117.33
2018-11-21T03:47:20.605Z,117.20
2018-11-21T03:49:52.270Z,99.42
2018-11-21T03:52:21.020Z,97.80
2018-11-21T03:54:50.097Z,106.60
2018-11-21T03:57:18.824Z,101.30
2018-11-21T03:59:55.125Z,100.07
2018-11-21T04:02:24.246Z,97.57
2018-11-21T04:04:53.309Z,97.12
2018-11-21T04:07:24.926Z,106.35
2018-11-21T04:09:56.686Z,94.70
2018-11-21T04:12:32.661Z,113.75
2018-11-21T04:14:58.405Z,99.72
2018-11-21T04:17:25.965Z,117.42
2018-11-21T04:19:57.952Z,111.97
2018-11-21T04:22:26.765Z,115.30
2018-11-21T04:24:56.996Z,111.32
2018-11-21T04:27:24.240Z,108.50
2018-11-21T04:29:52.927Z,111.50
2018-11-21T04:32:21.708Z,107.00
2018-11-21T04:34:53.476Z,100.53
2018-11-21T04:37:24.239Z,108.83
2018-11-21T04:39:53.691Z,107.45
2018-11-21T04:42:22.896Z,107.45
2018-11-21T04:44:51.931Z,108.67
2018-11-21T04:47:20.742Z,108.50
2018-11-21T04:49:51.754Z,108.05
2018-11-21T04:52:21.199Z,100.50
2018-11-21T04:54:50.111Z,104.07
2018-11-21T04:57:20.716Z,103.00
2018-11-21T04:59:49.469Z,104.63
2018-11-21T05:02:18.537Z,94.28
2018-11-21T05:04:48.409Z,87.75
2018-11-21T05:07:16.124Z,87.75
2018-11-21T05:09:45.089Z,80.72
2018-11-21T05:12:13.806Z,89.13
2018-11-21T05:14:58.452Z,81.25
2018-11-21T05:17:27.560Z,82.70
2018-11-21T05:19:56.384Z,86.12
2018-11-21T05:22:25.157Z,91.15
2018-11-21T05:24:54.047Z,100.72
2018-11-21T05:27:22.793Z,118.80
2018-11-21T05:29:55.540Z,113.95
2018-11-21T05:32:20.258Z,118.75
2018-11-21T05:34:49.396Z,113.57
2018-11-21T05:37:18.417Z,120.37
2018-11-21T05:39:52.483Z,108.83
2018-11-21T05:42:21.867Z,105.95
2018-11-21T05:44:50.625Z,103.62
2018-11-21T05:47:19.344Z,98.15
2018-11-21T05:49:49.440Z,103.92
2018-11-21T05:52:16.882Z,96.08
2018-11-21T05:54:46.745Z,99.17
2018-11-21T05:57:20.958Z,89.72
2018-11-21T05:59:49.792Z,90.55
2018-11-21T06:02:21.558Z,88.47
2018-11-21T06:04:50.212Z,79.67
2018-11-21T06:07:20.911Z,80.25
2018-11-21T06:09:47.800Z,74.45
2018-11-21T06:12:19.689Z,77.12
2018-11-21T06:14:48.454Z,80.75
2018-11-21T06:17:18.863Z,69.05
2018-11-21T06:19:46.481Z,72.27
2018-11-21T06:22:15.289Z,65.03
2018-11-21T06:24:43.978Z,72.32
2018-11-21T06:27:13.909Z,69.17
2018-11-21T06:29:41.511Z,58.33
2018-11-21T06:32:10.235Z,57.90
2018-11-21T06:34:39.079Z,61.25
2018-11-21T06:37:10.653Z,62.17
2018-11-21T06:39:41.367Z,69.15
2018-11-21T06:42:08.138Z,64.92
2018-11-21T06:44:38.312Z,67.67
2018-11-21T06:47:05.974Z,67.03
2018-11-21T06:49:37.661Z,60.48
2018-11-21T06:52:06.354Z,75.15
2018-11-21T06:54:35.157Z,79.58
2018-11-21T06:57:03.896Z,72.53
2018-11-21T06:59:32.663Z,67.60
2018-11-21T07:02:05.822Z,69.47
2018-11-21T07:04:32.659Z,68.05
2018-11-21T07:07:01.562Z,67.90
2018-11-21T07:09:30.476Z,66.92
2018-11-21T07:11:59.261Z,80.97
2018-11-21T07:14:30.847Z,78.97
2018-11-21T07:16:59.531Z,69.55
2018-11-21T07:19:28.429Z,75.25
2018-11-21T07:24:46.346Z,72.10
2018-11-21T07:27:15.101Z,85.47
2018-11-21T07:29:43.805Z,79.10
2018-11-21T07:32:12.534Z,85.30
2018-11-21T07:34:41.308Z,71.22
2018-11-21T07:37:13.525Z,64.58
2018-11-21T07:39:44.261Z,75.05
2018-11-21T07:42:14.287Z,113.97
2018-11-21T07:44:43.080Z,162.82
2018-11-21T07:47:11.807Z,133.03
2018-11-21T07:49:40.514Z,432.02
2018-11-21T07:52:12.262Z,576.30
2018-11-21T07:54:40.995Z,378.45
2018-11-21T07:57:31.219Z,540.67
2018-11-21T08:00:48.540Z,518.92
2018-11-21T08:03:22.412Z,511.68
2018-11-21T08:06:01.010Z,406.87
2018-11-21T08:09:03.727Z,274.40
2018-11-21T08:12:06.494Z,359.80
2018-11-21T08:15:09.269Z,260.17
2018-11-21T08:17:59.769Z,300.73
2018-11-21T08:20:53.189Z,289.85
2018-11-21T08:23:39.805Z,183.03
2018-11-21T08:26:27.625Z,251.70
2018-11-21T08:28:56.372Z,178.05
2018-11-21T08:31:28.302Z,199.75
2018-11-21T08:34:00.056Z,182.40
2018-11-21T08:36:29.002Z,202.38
2018-11-21T08:38:57.778Z,145.92
2018-11-21T08:41:31.892Z,119.50
2018-11-21T08:44:03.692Z,114.62
2018-11-21T08:46:32.447Z,129.95
2018-11-21T08:49:01.317Z,213.57
2018-11-21T08:51:31.942Z,83.37
2018-11-21T08:53:58.860Z,131.47
2018-11-21T08:56:27.780Z,115.40
2018-11-21T08:58:56.510Z,120.05
2018-11-21T09:01:25.302Z,144.90
2018-11-21T09:03:54.063Z,173.55
2018-11-21T09:06:22.811Z,146.57
2018-11-21T09:08:54.453Z,92.85
2018-11-21T09:11:25.523Z,85.12
2018-11-21T09:13:54.543Z,122.55
2018-11-21T09:16:30.681Z,103.20
2018-11-21T09:18:59.518Z,109.78
2018-11-21T09:21:31.105Z,115.80
2018-11-21T09:24:01.091Z,93.82
2018-11-21T09:26:30.610Z,134.12
2018-11-21T09:28:57.481Z,147.65
2018-11-21T09:31:26.185Z,66.65
2018-11-21T09:33:57.908Z,87.00
2018-11-21T09:36:28.278Z,128.47
2018-11-21T09:38:55.386Z,74.42
2018-11-21T09:41:24.066Z,93.37
2018-11-21T09:43:52.863Z,93.05
2018-11-21T09:46:21.587Z,130.00
2018-11-21T09:48:50.844Z,400.60
2018-11-21T09:51:19.876Z,72.67
2018-11-21T09:53:48.703Z,87.80
2018-11-21T09:56:17.433Z,88.45
2018-11-21T09:58:46.198Z,167.03
2018-11-21T10:01:51.269Z,82.62
2018-11-21T10:04:19.994Z,97.95
2018-11-21T10:06:48.924Z,132.65
2018-11-21T10:09:20.721Z,139.50
2018-11-21T10:11:50.333Z,113.35
2018-11-21T10:14:19.098Z,106.55
2018-11-21T10:16:48.068Z,262.30
2018-11-21T10:19:31.240Z,77.27
2018-11-21T10:21:58.973Z,188.27
2018-11-21T10:24:27.800Z,153.70
2018-11-21T10:26:59.912Z,295.33
2018-11-21T10:29:31.027Z,110.52
2018-11-21T10:31:59.282Z,128.60
2018-11-21T10:34:32.768Z,240.35
2018-11-21T10:37:04.538Z,234.37
2018-11-21T10:39:34.242Z,101.42
2018-11-21T10:42:02.038Z,77.17
2018-11-21T10:44:32.666Z,143.78
2018-11-21T10:47:05.409Z,218.52
2018-11-21T10:49:34.130Z,94.87
2018-11-21T10:52:02.869Z,387.12
2018-11-21T10:54:34.829Z,124.82
2018-11-21T10:57:03.979Z,249.05
2018-11-21T10:59:33.373Z,155.82
2018-11-21T11:02:25.093Z,59.10
2018-11-21T11:05:17.498Z,50.67
2018-11-21T11:08:07.333Z,55.73
2018-11-21T11:11:03.173Z,50.65
2018-11-21T11:13:57.001Z,50.52
2018-11-21T11:16:55.032Z,45.78
2018-11-21T11:19:45.340Z,50.10
2018-11-21T11:22:36.395Z,47.40
2018-11-21T11:25:40.702Z,45.00
2018-11-21T11:28:35.648Z,47.83
2018-11-21T11:31:29.366Z,52.13
2018-11-21T11:34:17.169Z,45.92
2018-11-21T11:37:03.065Z,44.73
2018-11-21T11:39:55.476Z,46.37
2018-11-21T11:42:43.280Z,44.63
2018-11-21T11:45:33.303Z,48.92
2018-11-21T11:48:34.898Z,48.55
2018-11-21T11:51:37.804Z,43.70
2018-11-21T11:54:44.285Z,46.37
2018-11-21T11:57:30.889Z,43.25
2018-11-21T12:00:27.340Z,38.55
2018-11-21T12:03:15.235Z,39.03
2018-11-21T12:05:55.789Z,37.23
2018-11-21T12:08:58.574Z,38.90
2018-11-21T12:12:04.795Z,35.98
2018-11-21T12:14:48.162Z,42.98
2018-11-21T12:17:51.430Z,41.75
2018-11-21T12:20:31.233Z,35.98
2018-11-21T12:23:19.104Z,41.15
2018-11-21T12:26:10.368Z,35.43
2018-11-21T12:28:43.018Z,33.53
2018-11-21T12:31:46.319Z,35.50
2018-11-21T12:34:43.245Z,32.73
2018-11-21T12:37:29.692Z,33.15
2018-11-21T12:40:17.261Z,35.05
2018-11-21T12:43:22.958Z,33.55
